Time;durP1;ratioP1;P1;durP2;ratioP2;P2;SDS_P1;SDS_P2;PMS_P1;PMS_P2;Temp;Humidity;BMP_temperature;BMP_pressure;BME280_temperature;BME280_humidity;BME280_pressure;Samples;Min_cycle;Max_cycle;Signal;HPM_P1;HPM_P2
2022/12/09 00:02:43;;;;;;;41.90;16.08;;;;;;;-7.77;69.47;100602.06;4927894;28;20049;-63
2022/12/09 00:05:36;;;;;;;51.92;25.15;;;;;;;-7.72;69.32;100600.69;4873374;28;20088;-63
2022/12/09 00:08:31;;;;;;;87.82;34.45;;;;;;;-7.76;69.26;100603.78;4909202;28;20064;-63
2022/12/09 00:11:28;;;;;;;52.55;24.10;;;;;;;-8.25;68.74;100536.56;4912078;28;20056;-63
2022/12/09 00:14:29;;;;;;;41.83;19.00;;;;;;;-7.82;69.24;100607.72;4892209;28;20055;-63
2022/12/09 00:17:13;;;;;;;33.78;15.35;;;;;;;-7.81;69.22;100606.94;4861329;28;20050;-63
2022/12/09 00:19:52;;;;;;;36.97;16.90;;;;;;;-7.71;70.38;100592.28;4873226;28;20105;-63
2022/12/09 00:22:31;;;;;;;35.47;15.05;;;;;;;-7.72;71.03;100593.06;4912001;28;20048;-62
2022/12/09 00:25:16;;;;;;;37.83;15.13;;;;;;;-7.81;70.53;100590.84;4916303;28;20055;-63
2022/12/09 00:27:54;;;;;;;35.95;15.88;;;;;;;-7.96;69.59;100590.78;4933077;28;20072;-61
2022/12/09 00:30:37;;;;;;;42.60;16.67;;;;;;;-7.90;69.78;100583.53;4896099;28;20108;-62
2022/12/09 00:33:26;;;;;;;38.25;16.35;;;;;;;-7.67;69.51;100594.22;4879422;28;20107;-62
2022/12/09 00:36:14;;;;;;;53.47;23.55;;;;;;;-7.26;69.41;100593.31;4897712;28;20052;-60
2022/12/09 00:38:48;;;;;;;39.88;18.58;;;;;;;-7.06;68.84;100582.69;4888484;28;20096;-63
2022/12/09 00:41:32;;;;;;;39.85;19.48;;;;;;;-6.72;69.85;100579.56;4877670;28;20054;-63
2022/12/09 00:47:11;;;;;;;31.67;13.07;;;;;;;-6.41;70.71;100540.66;4904238;28;20044;-63
2022/12/09 00:49:50;;;;;;;77.78;33.55;;;;;;;-6.14;68.94;100572.72;4921639;28;20060;-63
2022/12/09 00:52:37;;;;;;;67.22;30.17;;;;;;;-6.04;67.79;100575.75;4919965;28;20113;-60
2022/12/09 00:55:47;;;;;;;43.47;19.50;;;;;;;-6.00;66.47;100550.56;4919096;28;20056;-63
2022/12/09 00:58:27;;;;;;;38.72;17.13;;;;;;;-5.83;65.98;100564.16;4907212;28;20317;-63
2022/12/09 01:04:08;;;;;;;53.38;21.33;;;;;;;-5.52;64.66;100560.69;4921894;28;20048;-63
2022/12/09 01:07:00;;;;;;;45.40;20.00;;;;;;;-5.35;63.98;100549.72;4914002;28;20053;-63
2022/12/09 01:09:41;;;;;;;52.85;19.00;;;;;;;-4.95;64.28;100554.31;4890496;28;20044;-63
2022/12/09 01:12:25;;;;;;;36.47;13.57;;;;;;;-4.52;65.06;100563.22;4887938;28;20112;-62
2022/12/09 01:17:48;;;;;;;38.45;15.25;;;;;;;-4.48;62.30;100554.91;4891246;28;20098;-63
2022/12/09 01:23:52;;;;;;;37.22;16.67;;;;;;;-4.20;62.45;100564.75;4864887;28;20090;-64
2022/12/09 01:26:43;;;;;;;47.28;18.90;;;;;;;-4.46;61.93;100495.53;4912993;28;20086;-63
2022/12/09 01:33:01;;;;;;;45.50;18.85;;;;;;;-4.27;60.60;100473.41;4901300;28;20044;-63
2022/12/09 01:36:03;;;;;;;41.78;18.95;;;;;;;-3.93;59.50;100527.78;4901164;28;20458;-63
2022/12/09 01:38:45;;;;;;;44.28;18.50;;;;;;;-3.72;59.45;100527.00;4905929;28;20064;-63
2022/12/09 01:41:24;;;;;;;39.67;18.23;;;;;;;-3.41;59.31;100538.59;4911969;28;20369;-63
2022/12/09 01:44:20;;;;;;;47.08;19.42;;;;;;;-3.35;58.96;100528.63;4948166;28;20044;-62
2022/12/09 01:50:12;;;;;;;43.28;18.80;;;;;;;-3.36;58.32;100532.88;4910785;28;20104;-62
2022/12/09 01:52:56;;;;;;;46.17;18.30;;;;;;;-3.30;58.21;100534.81;4916518;28;20121;-61
2022/12/09 01:55:55;;;;;;;43.38;18.45;;;;;;;-3.20;58.50;100521.63;4896663;28;20053;-62
2022/12/09 02:01:30;;;;;;;42.45;18.67;;;;;;;-3.32;58.33;100523.66;4896780;28;20052;-63
2022/12/09 02:04:14;;;;;;;45.17;20.27;;;;;;;-3.44;58.70;100518.00;4922397;28;20356;-61
2022/12/09 02:07:03;;;;;;;51.67;20.80;;;;;;;-3.39;58.75;100516.56;4888688;28;20057;-62
2022/12/09 02:10:12;;;;;;;42.90;18.90;;;;;;;-3.16;58.93;100515.84;4919611;28;20045;-60
2022/12/09 02:13:03;;;;;;;38.35;16.65;;;;;;;-2.98;58.53;100525.09;4925659;28;20044;-61
2022/12/09 02:16:05;;;;;;;41.30;18.05;;;;;;;-2.85;58.15;100517.13;4918201;28;20124;-61
2022/12/09 02:18:51;;;;;;;45.70;19.83;;;;;;;-2.85;57.25;100501.78;4937370;28;20051;-62
2022/12/09 02:21:38;;;;;;;63.42;24.20;;;;;;;-2.72;56.84;100493.84;4925792;28;20044;-60
2022/12/09 02:24:24;;;;;;;55.03;24.25;;;;;;;-2.72;56.11;100504.06;4924279;28;20158;-62
2022/12/09 02:27:37;;;;;;;63.60;25.67;;;;;;;-2.77;56.51;100490.22;4912350;28;20324;-62
2022/12/09 02:30:39;;;;;;;57.22;25.00;;;;;;;-2.71;56.63;100495.56;4929433;28;20059;-63
2022/12/09 02:33:34;;;;;;;66.18;28.52;;;;;;;-2.73;56.61;100486.94;4916630;28;20045;-63
2022/12/09 02:36:45;;;;;;;40.50;18.13;;;;;;;-2.91;56.98;100470.88;4902734;28;20113;-61
2022/12/09 02:39:29;;;;;;;21.08;8.60;;;;;;;-3.15;56.15;100474.13;4899193;28;20052;-63
2022/12/09 02:42:18;;;;;;;23.98;10.02;;;;;;;-3.15;57.15;100471.56;4900469;28;20226;-63
2022/12/09 02:45:07;;;;;;;32.30;12.98;;;;;;;-2.99;57.02;100467.13;4835857;28;20444;-63
2022/12/09 02:47:51;;;;;;;25.73;10.82;;;;;;;-2.89;56.33;100474.38;4948930;28;20103;-63
2022/12/09 02:50:37;;;;;;;28.13;12.48;;;;;;;-2.81;57.00;100462.75;4914834;28;20040;-63
2022/12/09 02:56:10;;;;;;;33.15;11.02;;;;;;;-2.80;56.36;100464.50;4909027;28;20142;-62
2022/12/09 02:59:04;;;;;;;25.25;10.48;;;;;;;-3.04;56.22;100457.56;4908493;28;20065;-62
2022/12/09 03:02:02;;;;;;;23.05;9.10;;;;;;;-2.99;56.34;100451.78;4901770;28;20093;-63
2022/12/09 03:04:46;;;;;;;17.70;6.97;;;;;;;-3.11;55.51;100411.25;4913835;28;20065;-62
2022/12/09 03:10:44;;;;;;;15.30;5.10;;;;;;;-2.56;55.95;100438.16;4954768;28;20040;-61
2022/12/09 03:13:38;;;;;;;12.25;5.55;;;;;;;-2.43;55.36;100450.59;4939671;28;20282;-61
2022/12/09 03:16:34;;;;;;;10.85;4.53;;;;;;;-2.55;54.44;100450.13;4935914;28;20093;-61
2022/12/09 03:19:18;;;;;;;12.68;4.30;;;;;;;-2.69;54.96;100453.03;4893687;28;20135;-63
2022/12/09 03:22:18;;;;;;;9.07;4.40;;;;;;;-2.60;54.84;100447.38;4919400;28;20493;-62
2022/12/09 03:25:08;;;;;;;10.05;4.10;;;;;;;-2.45;55.25;100437.75;4862087;28;20056;-62
2022/12/09 03:28:21;;;;;;;9.63;3.97;;;;;;;-2.35;55.02;100431.28;4914167;28;20581;-62
2022/12/09 03:31:23;;;;;;;10.43;4.47;;;;;;;-2.47;53.68;100435.94;4858555;28;20164;-62
2022/12/09 03:34:12;;;;;;;11.00;4.38;;;;;;;-2.83;54.86;100382.53;4906514;28;20095;-62
2022/12/09 03:37:04;;;;;;;9.80;4.18;;;;;;;-2.33;54.94;100437.34;4946116;28;20096;-64
2022/12/09 03:43:02;;;;;;;10.68;4.95;;;;;;;-2.11;54.73;100433.06;4899984;28;20052;-62
2022/12/09 03:45:58;;;;;;;12.55;5.00;;;;;;;-2.42;55.04;100421.63;4930760;28;20076;-63
2022/12/09 03:52:03;;;;;;;14.45;5.43;;;;;;;-2.56;55.55;100433.91;4928818;28;20049;-63
2022/12/09 03:54:48;;;;;;;13.25;5.13;;;;;;;-2.64;55.85;100428.50;4888190;28;20066;-62
2022/12/09 03:57:26;;;;;;;15.27;6.65;;;;;;;-2.95;56.18;100387.16;4890074;28;20127;-61
2022/12/09 04:00:21;;;;;;;13.82;5.65;;;;;;;-2.66;55.97;100437.78;4913372;28;20063;-63
2022/12/09 04:02:55;;;;;;;8.55;4.55;;;;;;;-2.61;56.15;100446.50;4905700;28;20069;-62
2022/12/09 04:05:41;;;;;;;11.95;5.47;;;;;;;-2.69;55.58;100437.66;4887382;28;20050;-63
2022/12/09 04:08:23;;;;;;;5.10;3.10;;;;;;;-2.73;55.21;100434.94;4931508;28;20041;-62
2022/12/09 04:11:12;;;;;;;11.15;3.47;;;;;;;-2.82;54.92;100435.44;4948254;28;20147;-63
2022/12/09 04:17:09;;;;;;;6.30;2.50;;;;;;;-2.80;54.91;100433.81;4912292;28;20413;-61
2022/12/09 04:19:48;;;;;;;12.35;2.65;;;;;;;-2.76;55.22;100433.13;4902098;28;20109;-62
2022/12/09 04:22:40;;;;;;;5.65;3.13;;;;;;;-2.69;54.92;100432.56;4921621;28;20059;-63
2022/12/09 04:25:27;;;;;;;5.75;3.25;;;;;;;-2.78;55.35;100427.06;4889311;28;20059;-63
2022/12/09 04:28:05;;;;;;;4.50;2.85;;;;;;;-2.72;55.25;100442.69;4951316;28;20045;-63
2022/12/09 04:30:52;;;;;;;4.82;3.00;;;;;;;-2.75;55.69;100447.63;4920486;28;20037;-62
2022/12/09 04:33:43;;;;;;;5.35;2.53;;;;;;;-2.85;55.77;100446.41;4917215;28;20083;-62
2022/12/09 04:36:38;;;;;;;6.63;2.92;;;;;;;-2.98;55.72;100443.28;4929404;28;20127;-62
2022/12/09 04:39:44;;;;;;;5.40;3.10;;;;;;;-3.09;56.13;100451.41;4932570;28;20048;-62
2022/12/09 04:42:30;;;;;;;8.48;3.75;;;;;;;-3.05;56.00;100448.13;4930738;28;20132;-62
2022/12/09 04:45:09;;;;;;;9.85;3.67;;;;;;;-3.09;55.23;100456.50;4877888;28;20075;-62
2022/12/09 04:47:44;;;;;;;7.20;3.35;;;;;;;-3.34;53.61;100456.31;4954310;28;20097;-62
2022/12/09 04:53:28;;;;;;;8.48;3.45;;;;;;;-3.41;56.47;100456.84;4924362;28;20087;-63
2022/12/09 04:56:14;;;;;;;5.85;3.45;;;;;;;-3.39;56.13;100445.00;4901383;28;20061;-63
2022/12/09 04:58:54;;;;;;;5.03;2.83;;;;;;;-3.54;55.03;100451.22;4925106;28;20063;-64
2022/12/09 05:01:33;;;;;;;11.45;3.83;;;;;;;-3.54;57.00;100453.75;4865096;28;20053;-63
2022/12/09 05:04:28;;;;;;;7.70;3.70;;;;;;;-3.30;57.33;100455.59;4925146;28;20044;-63
2022/12/09 05:07:10;;;;;;;6.85;3.40;;;;;;;-3.40;57.20;100458.56;4881633;28;20108;-63
2022/12/09 05:09:50;;;;;;;8.57;3.78;;;;;;;-3.35;56.70;100472.41;4828462;28;20071;-63
2022/12/09 05:12:33;;;;;;;10.60;3.53;;;;;;;-3.39;56.59;100480.78;4885710;28;20051;-63
2022/12/09 05:18:54;;;;;;;6.68;2.70;;;;;;;-3.44;56.46;100477.13;4924093;28;20050;-63
2022/12/09 05:22:04;;;;;;;5.70;2.60;;;;;;;-3.60;56.03;100461.13;4873816;28;20053;-63
2022/12/09 05:28:01;;;;;;;6.60;3.30;;;;;;;-3.47;56.84;100486.44;4897364;28;20667;-62
2022/12/09 05:30:58;;;;;;;7.20;3.28;;;;;;;-3.43;57.18;100478.88;4885123;28;20033;-64
2022/12/09 05:36:48;;;;;;;6.80;3.00;;;;;;;-3.40;56.24;100484.13;4853952;28;20048;-64
2022/12/09 05:39:33;;;;;;;6.53;3.53;;;;;;;-3.33;57.02;100491.25;4879143;28;20113;-63
2022/12/09 05:45:21;;;;;;;5.70;3.03;;;;;;;-3.45;55.85;100480.50;4883943;28;20699;-63
2022/12/09 05:51:16;;;;;;;11.07;3.63;;;;;;;-3.50;56.63;100493.94;4834789;28;20061;-64
2022/12/09 05:53:52;;;;;;;5.85;2.92;;;;;;;-3.56;56.71;100493.69;4895501;28;20340;-64
2022/12/09 05:56:42;;;;;;;5.68;2.60;;;;;;;-3.59;56.73;100498.66;4883772;28;20049;-64
2022/12/09 05:59:30;;;;;;;6.57;3.47;;;;;;;-3.72;57.00;100491.25;4871818;28;20046;-63
2022/12/09 06:02:24;;;;;;;11.43;3.83;;;;;;;-3.72;57.08;100496.34;4849214;28;20053;-62
2022/12/09 06:05:04;;;;;;;5.95;2.92;;;;;;;-3.63;58.65;100494.22;4884524;28;20054;-62
2022/12/09 06:07:42;;;;;;;6.28;3.30;;;;;;;-3.70;58.25;100504.97;4894711;28;20091;-62
2022/12/09 06:13:06;;;;;;;6.78;2.90;;;;;;;-3.94;57.85;100508.16;4871161;28;20099;-63
2022/12/09 06:18:37;;;;;;;;;;;;;;;-4.31;58.06;100497.06;4858615;28;20503;-63
2022/12/09 06:21:34;;;;;;;7.50;3.40;;;;;;;-4.45;58.80;100511.69;4894785;28;19917;-63
2022/12/09 06:24:14;;;;;;;5.47;2.72;;;;;;;-4.58;59.24;100512.78;4833995;28;20144;-63
2022/12/09 06:27:18;;;;;;;6.18;2.80;;;;;;;-4.78;58.69;100515.25;4870622;28;20406;-63
2022/12/09 06:30:16;;;;;;;6.38;3.30;;;;;;;-4.78;58.53;100520.34;4897308;28;20124;-64
2022/12/09 06:36:06;;;;;;;8.20;3.40;;;;;;;-5.05;59.38;100524.06;4873306;28;20120;-64
2022/12/09 06:39:14;;;;;;;5.55;2.63;;;;;;;-5.18;59.83;100526.81;4886214;28;20037;-63
2022/12/09 06:42:03;;;;;;;6.55;3.47;;;;;;;-5.32;60.47;100524.41;4887770;28;20057;-64
2022/12/09 06:50:25;;;;;;;24.58;7.47;;;;;;;-5.69;61.73;100527.59;4864832;28;20053;-62
2022/12/09 06:53:12;;;;;;;16.23;6.68;;;;;;;-6.09;61.66;100484.81;4858495;28;20041;-63
2022/12/09 06:56:12;;;;;;;27.00;9.80;;;;;;;-6.02;61.90;100525.81;4883140;28;20058;-63
2022/12/09 06:58:51;;;;;;;13.90;5.57;;;;;;;-6.23;61.29;100531.50;4912467;28;20054;-63
2022/12/09 07:01:53;;;;;;;8.73;3.58;;;;;;;-6.53;61.76;100525.59;4868667;28;20058;-62
2022/12/09 07:04:30;;;;;;;9.38;4.22;;;;;;;-6.58;62.29;100538.03;4890273;28;20050;-62
2022/12/09 07:07:06;;;;;;;18.48;7.35;;;;;;;-6.69;62.94;100546.69;4893567;28;20056;-63
2022/12/09 07:12:54;;;;;;;28.52;11.60;;;;;;;-6.99;63.00;100544.19;4817008;28;20043;-62
2022/12/09 07:15:36;;;;;;;35.55;16.90;;;;;;;-7.05;63.96;100543.81;4874822;28;20049;-62
2022/12/09 07:18:31;;;;;;;38.50;15.45;;;;;;;-7.20;64.64;100537.84;4923999;28;20071;-62
2022/12/09 07:21:25;;;;;;;9.57;5.18;;;;;;;-7.37;65.46;100542.78;4935634;28;20100;-62
2022/12/09 07:24:18;;;;;;;13.40;7.32;;;;;;;-7.46;66.30;100548.97;4896780;28;20124;-62
2022/12/09 07:26:56;;;;;;;25.65;10.40;;;;;;;-7.51;67.20;100551.25;4896430;28;20041;-61
2022/12/09 07:29:52;;;;;;;11.63;6.70;;;;;;;-7.70;67.21;100553.44;4884093;28;20048;-62
2022/12/09 07:32:25;;;;;;;13.55;7.53;;;;;;;-7.86;67.67;100557.59;4916263;28;20044;-62
2022/12/09 07:35:04;;;;;;;13.90;7.13;;;;;;;-8.16;67.89;100536.28;4916856;28;20044;-61
2022/12/09 07:37:44;;;;;;;25.15;11.02;;;;;;;-8.29;68.29;100559.06;4889573;28;20072;-62
2022/12/09 07:43:36;;;;;;;39.28;15.18;;;;;;;-8.76;69.53;100560.38;4913445;28;20376;-61
2022/12/09 07:46:24;;;;;;;35.08;11.40;;;;;;;-9.01;70.80;100562.94;4928945;28;20082;-62
2022/12/09 07:49:28;;;;;;;35.97;13.85;;;;;;;-9.21;71.92;100569.22;4876650;28;20076;-61
2022/12/09 07:52:19;;;;;;;15.20;7.18;;;;;;;-9.34;73.06;100569.13;4894419;28;20096;-61
2022/12/09 07:55:19;;;;;;;15.45;6.30;;;;;;;-9.40;73.72;100567.06;4887325;28;20363;-62
2022/12/09 08:04:26;;;;;;;16.02;6.00;;;;;;;-9.59;74.61;100564.94;4897609;28;20092;-61
2022/12/09 08:07:06;;;;;;;38.70;14.57;;;;;;;-9.80;75.35;100568.53;4845762;28;20267;-61
2022/12/09 08:12:42;;;;;;;26.85;9.57;;;;;;;-10.00;77.15;100565.47;4920566;28;20045;-61
2022/12/09 08:15:42;;;;;;;28.27;11.27;;;;;;;-10.37;77.46;100510.63;4885156;28;20313;-61
2022/12/09 08:18:25;;;;;;;23.08;8.88;;;;;;;-10.20;77.88;100560.69;4902801;28;20056;-61
2022/12/09 08:21:08;;;;;;;17.58;7.57;;;;;;;-10.35;77.78;100540.28;4827836;28;20062;-61
2022/12/09 08:24:01;;;;;;;19.85;7.43;;;;;;;-10.18;77.95;100551.56;4858630;28;20684;-61
2022/12/09 08:26:48;;;;;;;23.45;11.85;;;;;;;-10.21;77.96;100541.22;4882710;28;20087;-61
2022/12/09 08:29:46;;;;;;;15.88;10.20;;;;;;;-10.10;78.03;100558.03;4901232;28;20054;-62
2022/12/09 08:32:25;;;;;;;8.15;5.05;;;;;;;-10.29;77.93;100545.75;4882385;28;20057;-61
2022/12/09 08:38:09;;;;;;;12.63;3.83;;;;;;;-10.47;78.76;100530.19;4870678;28;20442;-61
2022/12/09 08:41:15;;;;;;;6.78;3.97;;;;;;;-10.50;78.92;100540.06;4876392;28;20096;-61
2022/12/09 08:50:11;;;;;;;6.30;3.80;;;;;;;-10.64;79.67;100541.59;4877322;28;20054;-61
2022/12/09 08:53:01;;;;;;;7.43;3.63;;;;;;;-10.53;80.18;100552.50;4828478;28;20103;-62
2022/12/09 08:58:38;;;;;;;7.93;3.88;;;;;;;-10.48;80.21;100568.84;4846398;28;20105;-62
2022/12/09 09:01:24;;;;;;;11.52;5.32;;;;;;;-10.49;80.29;100548.53;4860044;28;20056;-62
2022/12/09 09:04:27;;;;;;;11.57;5.20;;;;;;;-10.43;80.26;100542.28;4880635;28;20161;-62
2022/12/09 09:07:33;;;;;;;10.02;5.05;;;;;;;-10.25;79.80;100572.13;4840370;28;20117;-62
2022/12/09 09:10:19;;;;;;;18.10;6.80;;;;;;;-10.28;79.41;100569.38;4865527;28;20102;-61
2022/12/09 09:13:12;;;;;;;13.63;6.90;;;;;;;-10.35;79.13;100579.84;4877357;28;20047;-62
2022/12/09 09:15:49;;;;;;;15.90;7.78;;;;;;;-10.40;78.99;100587.09;4800361;28;20045;-62
2022/12/09 09:18:24;;;;;;;18.20;7.32;;;;;;;-10.30;79.22;100586.09;4837023;28;20046;-62
2022/12/09 09:23:59;;;;;;;17.55;9.73;;;;;;;-10.44;78.66;100585.97;4865313;28;20206;-62
2022/12/09 09:26:50;;;;;;;23.33;9.55;;;;;;;-10.46;78.56;100587.53;4885766;28;20042;-63
2022/12/09 09:29:30;;;;;;;31.08;13.70;;;;;;;-10.46;78.40;100592.59;4888442;28;20082;-62
2022/12/09 09:32:24;;;;;;;37.17;15.93;;;;;;;-10.61;78.00;100591.44;4933651;28;20040;-62
2022/12/09 09:35:12;;;;;;;34.20;14.25;;;;;;;-10.71;77.76;100594.06;4872247;28;20075;-62
2022/12/09 09:41:08;;;;;;;75.78;26.35;;;;;;;-10.87;77.40;100602.16;4920976;28;20047;-63
2022/12/09 09:43:59;;;;;;;182.10;51.38;;;;;;;-10.81;77.63;100601.72;4908366;28;20067;-62
2022/12/09 09:46:52;;;;;;;203.35;60.97;;;;;;;-11.04;78.16;100542.00;4856359;28;20042;-62
2022/12/09 09:49:40;;;;;;;178.95;54.08;;;;;;;-10.72;78.45;100588.16;4871803;28;20187;-63
2022/12/09 09:53:29;;;;;;;155.45;51.92;;;;;;;-10.59;78.67;100594.97;4894604;28;20059;-62
2022/12/09 09:56:28;;;;;;;42.03;18.60;;;;;;;-10.69;79.58;100588.34;4921820;28;20093;-62
2022/12/09 09:59:22;;;;;;;16.35;9.10;;;;;;;-10.59;80.30;100600.00;4944611;28;20133;-62
2022/12/09 10:06:12;;;;;;;6.05;4.00;;;;;;;-10.40;81.43;100591.25;4858965;28;20088;-62
2022/12/09 10:09:06;;;;;;;8.63;4.50;;;;;;;-10.25;81.59;100592.31;4873586;28;20054;-62
2022/12/09 10:12:01;;;;;;;29.10;13.18;;;;;;;-10.34;81.95;100531.06;4853414;28;20067;-62
2022/12/09 10:18:13;;;;;;;80.63;29.73;;;;;;;-9.74;81.64;100563.88;4831561;28;20127;-62
2022/12/09 10:21:02;;;;;;;39.75;16.48;;;;;;;-9.51;81.27;100582.28;4849550;28;20086;-63
2022/12/09 10:23:46;;;;;;;60.75;19.80;;;;;;;-9.34;81.29;100586.84;4872612;28;20328;-63
2022/12/09 10:30:09;;;;;;;83.35;25.55;;;;;;;-9.43;79.26;100583.72;4870015;28;20064;-63
2022/12/09 10:32:48;;;;;;;116.85;33.53;;;;;;;-9.56;78.79;100580.34;4788733;29;20084;-62
2022/12/09 10:35:31;;;;;;;99.30;26.95;;;;;;;-9.48;78.53;100587.56;4877388;28;20053;-63
2022/12/09 10:41:07;;;;;;;79.45;22.35;;;;;;;-9.25;77.90;100594.19;4908900;28;20094;-63
2022/12/09 10:44:35;;;;;;;34.47;12.23;;;;;;;-9.15;77.94;100583.91;4863053;28;20084;-62
2022/12/09 10:47:30;;;;;;;33.97;12.25;;;;;;;-9.35;77.99;100534.50;4902600;28;20369;-63
2022/12/09 10:50:48;;;;;;;49.70;15.73;;;;;;;-9.14;77.58;100581.47;4933117;28;20047;-62
2022/12/09 10:53:33;;;;;;;45.65;17.30;;;;;;;-9.01;77.61;100579.75;4879555;28;20074;-61
2022/12/09 10:56:34;;;;;;;22.17;10.10;;;;;;;-9.15;77.28;100579.72;4865133;28;20077;-62
2022/12/09 11:00:06;;;;;;;20.42;7.82;;;;;;;-9.22;77.05;100581.75;4922497;28;20056;-62
2022/12/09 11:02:58;;;;;;;16.75;7.65;;;;;;;-9.26;77.20;100570.56;4889798;28;20096;-62
2022/12/09 11:09:06;;;;;;;40.03;14.75;;;;;;;-9.27;77.76;100578.91;4910588;28;20071;-62
2022/12/09 11:11:49;;;;;;;25.33;9.82;;;;;;;-9.20;78.42;100581.06;4892042;28;20059;-61
2022/12/09 11:14:36;;;;;;;34.33;14.10;;;;;;;-9.14;78.30;100578.94;4868404;28;20099;-62
2022/12/09 11:18:01;;;;;;;34.00;13.68;;;;;;;-9.13;78.32;100578.19;4871992;28;20048;-61
2022/12/09 11:20:42;;;;;;;33.85;12.82;;;;;;;-9.22;78.22;100549.72;4870038;28;20036;-62
2022/12/09 11:23:28;;;;;;;25.63;10.38;;;;;;;-9.05;78.15;100555.03;4857519;28;20048;-62
2022/12/09 11:33:32;;;;;;;17.30;7.10;;;;;;;-9.18;77.29;100564.34;4858488;28;20057;-61
2022/12/09 11:36:18;;;;;;;17.65;8.18;;;;;;;-9.06;77.99;100565.91;4850391;28;20054;-62
2022/12/09 11:42:51;;;;;;;18.10;7.65;;;;;;;-9.04;77.66;100566.91;4772528;29;20392;-61
2022/12/09 11:52:27;;;;;;;16.05;7.85;;;;;;;-9.00;78.35;100556.22;4750743;29;20047;-62
2022/12/09 11:55:26;;;;;;;19.08;8.25;;;;;;;-8.90;78.38;100566.16;4768309;29;20289;-63
2022/12/09 11:58:27;;;;;;;23.08;8.50;;;;;;;-8.80;78.32;100573.59;4739316;29;20059;-63
2022/12/09 12:01:36;;;;;;;18.58;9.00;;;;;;;-9.09;78.52;100530.28;4740287;29;20114;-63
2022/12/09 12:04:26;;;;;;;23.48;8.73;;;;;;;-8.87;78.21;100568.03;4771912;29;20119;-63
2022/12/09 12:07:13;;;;;;;18.20;8.30;;;;;;;-8.71;78.71;100579.28;4745748;29;20058;-63
2022/12/09 12:10:19;;;;;;;18.30;7.82;;;;;;;-8.78;77.88;100577.09;4772428;28;20047;-63
2022/12/09 12:13:19;;;;;;;24.23;10.40;;;;;;;-8.83;77.83;100580.13;4832803;28;20413;-63
2022/12/09 12:16:02;;;;;;;19.05;8.80;;;;;;;-8.90;77.53;100586.44;4804788;28;20505;-64
2022/12/09 12:19:13;;;;;;;12.50;6.30;;;;;;;-9.06;78.59;100527.94;4796330;28;20057;-63
2022/12/09 12:22:28;;;;;;;16.15;6.47;;;;;;;-8.65;78.72;100585.50;4810846;28;20044;-63
2022/12/09 12:25:47;;;;;;;19.90;7.72;;;;;;;-8.50;79.60;100571.31;4824402;28;20050;-63
2022/12/09 12:29:07;;;;;;;15.85;6.93;;;;;;;-8.34;79.18;100584.13;4863554;28;24441;-63
2022/12/09 12:32:25;;;;;;;11.97;6.37;;;;;;;-8.20;78.98;100579.06;4822397;28;20079;-63
2022/12/09 12:35:32;;;;;;;16.35;5.68;;;;;;;-8.27;78.32;100578.66;4792474;29;20111;-63
2022/12/09 12:38:27;;;;;;;15.02;6.95;;;;;;;-8.37;77.93;100578.88;4821391;28;20056;-63
2022/12/09 12:41:32;;;;;;;14.55;6.30;;;;;;;-8.34;78.26;100580.72;4815392;29;20047;-63
2022/12/09 12:48:01;;;;;;;75.55;23.60;;;;;;;-8.28;78.52;100582.00;4785253;28;20074;-63
2022/12/09 12:51:13;;;;;;;25.58;11.60;;;;;;;-8.35;78.08;100574.78;4763160;28;20043;-63
2022/12/09 12:54:07;;;;;;;14.68;6.68;;;;;;;-8.22;78.65;100570.50;4725356;29;20081;-63
2022/12/09 12:57:06;;;;;;;16.00;7.60;;;;;;;-8.08;78.66;100580.72;4798622;28;20043;-64
2022/12/09 13:00:05;;;;;;;21.65;7.80;;;;;;;-8.03;78.39;100583.56;4811371;28;20050;-63
2022/12/09 13:06:25;;;;;;;37.13;12.23;;;;;;;-8.07;78.25;100566.38;4849335;28;20107;-63
2022/12/09 13:09:08;;;;;;;37.20;13.85;;;;;;;-8.39;78.02;100512.00;4831392;28;20338;-64
2022/12/09 13:12:08;;;;;;;27.67;8.80;;;;;;;-7.97;78.24;100578.84;4832707;28;20106;-64
2022/12/09 13:15:03;;;;;;;24.05;8.85;;;;;;;-8.02;77.75;100580.22;4836652;28;20042;-64
2022/12/09 13:17:48;;;;;;;22.75;8.98;;;;;;;-8.08;78.11;100572.25;4822697;28;20247;-64
2022/12/09 13:20:51;;;;;;;15.45;7.78;;;;;;;-8.17;77.63;100556.44;4783319;28;20058;-64
2022/12/09 13:23:54;;;;;;;15.07;8.10;;;;;;;-8.07;77.14;100581.59;4838280;28;20114;-63
2022/12/09 13:26:58;;;;;;;19.05;8.20;;;;;;;-8.21;76.92;100568.06;4846978;28;20046;-63
2022/12/09 13:29:46;;;;;;;16.33;9.10;;;;;;;-8.23;76.59;100581.44;4748886;28;20047;-63
2022/12/09 13:33:18;;;;;;;20.48;9.43;;;;;;;-8.31;76.12;100593.59;4845378;28;20119;-63
2022/12/09 13:36:23;;;;;;;26.42;11.10;;;;;;;-8.41;76.10;100589.63;4857117;28;20033;-63
2022/12/09 13:39:26;;;;;;;27.45;11.98;;;;;;;-8.61;75.83;100574.78;4911415;28;20033;-64
2022/12/09 13:43:00;;;;;;;32.00;13.05;;;;;;;-8.62;76.04;100588.25;4909727;28;20053;-63
2022/12/09 13:46:07;;;;;;;25.48;10.25;;;;;;;-8.70;76.30;100581.00;4853622;28;20052;-63
2022/12/09 13:49:11;;;;;;;19.38;9.35;;;;;;;-8.67;75.96;100595.53;4858638;28;20059;-63
2022/12/09 13:51:55;;;;;;;24.85;10.07;;;;;;;-8.80;75.96;100593.84;4863114;28;20265;-63
2022/12/09 13:54:41;;;;;;;20.23;8.45;;;;;;;-8.89;76.16;100593.25;4881399;28;20037;-63
2022/12/09 13:57:35;;;;;;;18.63;7.82;;;;;;;-8.97;76.12;100590.19;4921517;28;20040;-63
2022/12/09 14:00:24;;;;;;;20.20;8.85;;;;;;;-9.08;76.03;100580.13;4906533;28;20055;-63
2022/12/09 14:03:35;;;;;;;22.88;10.02;;;;;;;-9.07;76.15;100597.97;4855101;28;20281;-63
2022/12/09 14:06:34;;;;;;;19.33;9.82;;;;;;;-9.05;76.60;100582.88;4909244;28;20221;-63
2022/12/09 14:09:39;;;;;;;20.83;9.55;;;;;;;-8.78;77.17;100592.31;4893293;28;20053;-63
2022/12/09 14:12:17;;;;;;;28.38;9.90;;;;;;;-8.68;77.58;100589.59;4888253;28;20059;-63
2022/12/09 14:15:10;;;;;;;23.83;9.88;;;;;;;-8.49;78.09;100590.78;4922820;28;20059;-63
2022/12/09 14:18:16;;;;;;;21.15;11.05;;;;;;;-8.39;78.08;100580.41;4906829;28;20142;-63
2022/12/09 14:21:35;;;;;;;24.85;10.05;;;;;;;-8.21;77.71;100589.97;4904003;28;20059;-63
2022/12/09 14:24:55;;;;;;;24.70;9.50;;;;;;;-8.32;76.26;100595.25;4882801;28;20088;-63
2022/12/09 14:28:43;;;;;;;26.55;11.18;;;;;;;-8.38;76.78;100574.59;4895921;28;20040;-63
2022/12/09 14:32:08;;;;;;;28.08;11.57;;;;;;;-8.51;76.19;100587.25;4854799;28;20057;-63
2022/12/09 14:38:18;;;;;;;23.00;10.32;;;;;;;-9.06;75.42;100573.50;4868557;28;20050;-63
2022/12/09 14:41:17;;;;;;;22.77;11.00;;;;;;;-9.51;75.36;100516.50;4866536;28;20405;-63
2022/12/09 14:44:20;;;;;;;25.90;10.45;;;;;;;-9.30;75.76;100578.69;4877682;28;20083;-63
2022/12/09 14:47:14;;;;;;;37.75;14.45;;;;;;;-9.77;75.76;100523.22;4906124;28;20036;-63
2022/12/09 14:50:06;;;;;;;34.90;14.07;;;;;;;-9.62;76.00;100574.84;4892037;28;20416;-62
2022/12/09 14:52:56;;;;;;;41.10;14.98;;;;;;;-9.71;76.37;100576.72;4896959;28;20051;-63
2022/12/09 14:55:42;;;;;;;26.75;12.60;;;;;;;-9.75;77.17;100562.13;4909430;28;20052;-63
2022/12/09 14:58:32;;;;;;;26.77;11.75;;;;;;;-9.71;77.18;100564.09;4919827;28;20322;-63
2022/12/09 15:01:16;;;;;;;21.48;10.95;;;;;;;-9.86;77.30;100563.03;4920697;28;20101;-62
2022/12/09 15:04:01;;;;;;;25.35;10.45;;;;;;;-10.20;76.84;100535.41;4889089;28;20087;-63
2022/12/09 15:06:41;;;;;;;337.55;71.55;;;;;;;-10.33;77.06;100537.84;4858798;28;20041;-62
2022/12/09 15:09:27;;;;;;;281.48;59.05;;;;;;;-10.31;77.79;100548.94;4902018;28;20118;-62
2022/12/09 15:12:37;;;;;;;227.20;52.40;;;;;;;-10.35;78.27;100534.38;4899599;28;20338;-62
2022/12/09 15:15:50;;;;;;;126.53;30.60;;;;;;;-10.30;78.46;100543.16;4900192;28;20059;-62
2022/12/09 15:18:41;;;;;;;108.30;26.02;;;;;;;-10.35;78.75;100544.47;4905855;28;20097;-62
2022/12/09 15:24:25;;;;;;;360.50;102.32;;;;;;;-10.91;78.38;100459.69;4903646;28;20274;-63
2022/12/09 15:27:29;;;;;;;149.00;43.35;;;;;;;-10.42;78.56;100544.03;4899912;28;20055;-62
2022/12/09 15:30:31;;;;;;;56.70;21.13;;;;;;;-10.43;79.00;100534.69;4861766;28;20049;-62
2022/12/09 15:36:22;;;;;;;24.85;9.68;;;;;;;-10.12;80.10;100539.34;4939230;28;20068;-63
2022/12/09 15:39:08;;;;;;;22.40;9.32;;;;;;;-10.17;79.89;100528.03;4861865;28;20109;-63
2022/12/09 15:42:09;;;;;;;24.13;9.02;;;;;;;-10.08;79.68;100541.34;4855998;28;20069;-63
2022/12/09 15:44:52;;;;;;;12.40;6.63;;;;;;;-9.99;79.19;100549.53;4897085;28;20120;-63